Andahuaylas, Peru
Current Conditions -  °F | °C
As of 11:00 AM on Tuesday 21 Oct 2014 (Local Time) from SPHO Reporting Station
Scattered Clouds Scattered Clouds  
Wind Chill: 68°   Ceiling: Unl
Heat Index: 68°   Visibility: 6mi
Dew Point: 50°   Wind: 3mph
Humidity: 52%   Direction: NA
Pressure: 30.42"   Gusts: NA
Location:  13.65°S, 73.4°W
Report Text: SPHO 211600Z VRB03KT 9999 SCT040 20/10 Q1030 RMK PP000
Loading
Personal Weather Stations






























Interactive Weather Map
Tropical Storm Tracking
New forecast layout! Learn more

10-Day Weather Forecast

Advertisements
Track Severe Weather on mobile